Terminal Aerodrome Forecast
Issued by NWS Twin Cities, MN

Home | Current Version | Previous Version | Graphics & Text | Print | Product List | Glossary On
Versions: 1 2 3 4 5 6 7 8 9 10 11 12 13 14 15 16 17
000
FTUS43 KMPX 012336
TAFSTC
TAF
KSTC 012336Z 0200/0224 29013KT P6SM FEW030 BKN050
     FM020400 29009KT P6SM FEW250
     FM021500 17005KT P6SM FEW050 SCT250
     FM022100 16010G18KT P6SM FEW070 OVC100=

USA.gov is the U.S. government's official web portal to all federal, state and local government web resources and services.